1886 Hurricane NOT_NAMED (1886158N18285)


IBTrACS version v04r00. Visit IBTrACS website for data access.
Please direct all questions to the IBTrACS Q and A forum

Storm track - Intensity - Wind Radii - Intensity Data - Source Data - All data

Summary Information

Storm ID 1886158N18285
Start Jun 7 00Z
Landfall Jun 11 06Z, Jun 14 21Z
Max Intensity 85 kt (Jun 14 16Z)
End Jun 15 18Z
ATCF IDs ,AL011886
Track status Best track data.

Storm track plot

Map of storm track

Intensity plots

Map of storm track

Radial wind information

No radial wind information for this storm


Position and Intensity Table

BASIN ISO_TIME_________ NATURE LAT LON WMO WIND USA WIND MLC WIND
degrees north degrees east kts kts kts
NA 1886-06-07 00:00:00 TS 17.50 -75.50 35
NA 03:00:00 TS 17.44 -75.66 35
NA 06:00:00 TS 17.40 -75.80 35
NA 09:00:00 TS 17.40 -75.90 35
NA 12:00:00 TS 17.40 -76.00 35
NA 15:00:00 TS 17.35 -76.15 35
NA 18:00:00 TS 17.30 -76.30 35
NA 21:00:00 TS 17.29 -76.38 35
NA 1886-06-08 00:00:00 TS 17.30 -76.50 35
NA 03:00:00 TS 17.30 -76.73 35
NA 06:00:00 TS 17.30 -77.00 35
NA 09:00:00 TS 17.29 -77.22 35
NA 12:00:00 TS 17.30 -77.50 35
NA 15:00:00 TS 17.35 -77.92 37
NA 18:00:00 TS 17.40 -78.40 40
NA 21:00:00 TS 17.40 -78.85 42
NA 1886-06-09 00:00:00 TS 17.40 -79.30 45
NA 03:00:00 TS 17.45 -79.76 45
NA 06:00:00 TS 17.50 -80.20 45
NA 09:00:00 TS 17.48 -80.60 45
NA 12:00:00 TS 17.50 -81.00 45
NA 15:00:00 TS 17.63 -81.44 45
NA 18:00:00 TS 17.80 -81.90 45
NA 21:00:00 TS 17.90 -82.36 45
NA 1886-06-10 00:00:00 TS 18.00 -82.80 45
NA 03:00:00 TS 18.15 -83.20 45
NA 06:00:00 TS 18.30 -83.60 45
NA 09:00:00 TS 18.38 -84.04 45
NA 12:00:00 TS 18.50 -84.50 45
NA 15:00:00 TS 18.73 -84.99 45
NA 18:00:00 TS 19.00 -85.50 45
NA 21:00:00 TS 19.25 -86.00 45
NA 1886-06-11 00:00:00 TS 19.50 -86.50 45
NA 03:00:00 TS 19.75 -87.00 47
NA 06:00:00 TS 20.00 -87.50 50
NA 09:00:00 TS 20.24 -88.00 50
NA 12:00:00 TS 20.50 -88.50 50
NA 15:00:00 TS 20.79 -89.01 52
NA 18:00:00 TS 21.10 -89.50 55
NA 21:00:00 TS 21.40 -89.96 57
NA 1886-06-12 00:00:00 TS 21.70 -90.40 60
NA 03:00:00 TS 22.01 -90.84 60
NA 06:00:00 TS 22.30 -91.30 60
NA 09:00:00 TS 22.56 -91.82 62
NA 12:00:00 TS 22.80 -92.30 65
NA 15:00:00 TS 22.98 -92.57 66
NA 18:00:00 TS 23.14 -92.73 67
NA 21:00:00 TS 23.33 -92.84 68
NA 1886-06-13 00:00:00 TS 23.60 -93.00 70
NA 03:00:00 TS 23.98 -93.29 70
NA 06:00:00 TS 24.00 -94.30 35 35 70
NA 09:00:00 TS 24.38 -94.85 37 70
NA 12:00:00 TS 24.90 -95.22 40 40 70
NA 15:00:00 TS 25.47 -95.49 42 70
NA 18:00:00 TS 26.00 -95.60 45 45 70
NA 21:00:00 TS 26.43 -95.67 50 70
NA 1886-06-14 00:00:00 TS 26.83 -95.67 55 55 70
NA 03:00:00 TS 27.29 -95.58 60 70
NA 06:00:00 TS 27.77 -95.40 65 65 70
NA 09:00:00 TS 28.21 -95.18 70 72
NA 12:00:00 TS 28.67 -94.87 75 75 75
NA 15:00:00 TS 29.14 -94.41 82 80
NA 16:00:00 TS 29.30 -94.26 85 85 81
NA 18:00:00 TS 29.60 -94.00 85 85 85
NA 21:00:00 TS 30.05 -93.61 72 72
NA 1886-06-15 00:00:00 TS 30.47 -93.17 60 60 60
NA 03:00:00 TS 30.83 -92.70 52 52
NA 06:00:00 TS 31.11 -92.13 45 45 45
NA 09:00:00 TS 31.30 -91.44 40 40
NA 12:00:00 TS 31.39 -90.70 35 35 35
NA 15:00:00 TS 31.22 -89.69 32
NA 18:00:00 TS 31.20 -89.00 30 30

Source Information

Agency Information
USA hurdat2-1851-2019-042820.txt:Line=5150:UNNAMED
TOKYO
CMA
HKO
NEWDELHI
REUNION
BOM
NADI
WELLINGTON
DS824
TD9636
TD9635
NEUMANN
MLC

All available IBTrACS Data

SEASON BASIN SUBBASIN ISO_TIME_________ NATURE LAT LON WMO WIND WMO AGENCY DIST2LAND LANDFALL IFLAG USA AGENCY USA ATCF_ID USA LAT USA LON USA RECORD USA STATUS USA WIND USA SSHS MLC LAT MLC LON MLC CLASS MLC WIND STORM SPEED STORM DIR
Year degrees north degrees east kts km km degrees north degrees east kts 1 degrees north degrees east kts kts degrees
1886 NA CS 1886-06-07 00:00:00 TS 17.50 -75.50 86 77 _____________O -1 17.50 -75.50 TS 35 3 247
1886 NA CS 03:00:00 TS 17.44 -75.66 77 70 _____________P -1 17.44 -75.66 TS 35 3 251
1886 NA CS 06:00:00 TS 17.40 -75.80 70 64 _____________O -1 17.40 -75.80 TS 35 2 261
1886 NA CS 09:00:00 TS 17.40 -75.90 64 59 _____________P -1 17.40 -75.90 TS 35 2 270
1886 NA CS 12:00:00 TS 17.40 -76.00 59 56 _____________O -1 17.40 -76.00 TS 35 2 258
1886 NA CS 15:00:00 TS 17.35 -76.15 55 55 _____________P -1 17.35 -76.15 TS 35 3 251
1886 NA CS 18:00:00 TS 17.30 -76.30 67 67 _____________O -1 17.30 -76.30 TS 35 2 256
1886 NA CS 21:00:00 TS 17.29 -76.38 67 67 _____________P -1 17.29 -76.38 TS 35 2 270
1886 NA CS 1886-06-08 00:00:00 TS 17.30 -76.50 67 64 _____________O -1 17.30 -76.50 TS 35 3 271
1886 NA CS 03:00:00 TS 17.30 -76.73 64 49 _____________P -1 17.30 -76.73 TS 35 5 270
1886 NA CS 06:00:00 TS 17.30 -77.00 49 44 _____________O -1 17.30 -77.00 TS 35 5 269
1886 NA CS 09:00:00 TS 17.29 -77.22 44 44 _____________P -1 17.29 -77.22 TS 35 5 270
1886 NA CS 12:00:00 TS 17.30 -77.50 54 54 _____________O -1 17.30 -77.50 TS 35 7 275
1886 NA CS 15:00:00 TS 17.35 -77.92 59 59 _____________P -1 17.35 -77.92 TS 37 9 277
1886 NA CS 18:00:00 TS 17.40 -78.40 89 89 _____________O -1 17.40 -78.40 TS 40 9 273
1886 NA CS 21:00:00 TS 17.40 -78.85 103 103 _____________P -1 17.40 -78.85 TS 42 9 270
1886 NA CS 1886-06-09 00:00:00 TS 17.40 -79.30 130 130 _____________O -1 17.40 -79.30 TS 45 9 273
1886 NA CS 03:00:00 TS 17.45 -79.76 173 167 _____________P -1 17.45 -79.76 TS 45 9 277
1886 NA CS 06:00:00 TS 17.50 -80.20 206 206 _____________O -1 17.50 -80.20 TS 45 8 272
1886 NA CS 09:00:00 TS 17.48 -80.60 245 245 _____________P -1 17.48 -80.60 TS 45 8 270
1886 NA CS 12:00:00 TS 17.50 -81.00 286 286 _____________O -1 17.50 -81.00 TS 45 8 281
1886 NA CS 15:00:00 TS 17.63 -81.44 324 322 _____________P -1 17.63 -81.44 TS 45 9 289
1886 NA CS 18:00:00 TS 17.80 -81.90 322 312 _____________O -1 17.80 -81.90 TS 45 9 287
1886 NA CS 21:00:00 TS 17.90 -82.36 308 293 _____________P -1 17.90 -82.36 TS 45 9 283
1886 NA CS 1886-06-10 00:00:00 TS 18.00 -82.80 293 282 _____________O -1 18.00 -82.80 TS 45 8 287
1886 NA CS 03:00:00 TS 18.15 -83.20 282 282 _____________P -1 18.15 -83.20 TS 45 8 292
1886 NA CS 06:00:00 TS 18.30 -83.60 289 284 _____________O -1 18.30 -83.60 TS 45 8 287
1886 NA CS 09:00:00 TS 18.38 -84.04 289 282 _____________P -1 18.38 -84.04 TS 45 9 283
1886 NA CS 12:00:00 TS 18.50 -84.50 291 267 _____________O -1 18.50 -84.50 TS 45 10 291
1886 NA CS 15:00:00 TS 18.73 -84.99 267 207 _____________P -1 18.73 -84.99 TS 45 11 298
1886 NA CS 18:00:00 TS 19.00 -85.50 207 150 _____________O -1 19.00 -85.50 TS 45 11 299
1886 NA CS 21:00:00 TS 19.25 -86.00 150 94 _____________P -1 19.25 -86.00 TS 45 11 298
1886 NA CS 1886-06-11 00:00:00 TS 19.50 -86.50 94 47 _____________O -1 19.50 -86.50 TS 45 11 298
1886 NA CS 03:00:00 TS 19.75 -87.00 47 0 _____________P -1 19.75 -87.00 TS 47 11 298
1886 NA CS 06:00:00 TS 20.00 -87.50 0 0 _____________O -1 20.00 -87.50 TS 50 11 298
1886 NA NA 09:00:00 TS 20.24 -88.00 0 0 _____________P -1 20.24 -88.00 TS 50 11 298
1886 NA NA 12:00:00 TS 20.50 -88.50 0 0 _____________O -1 20.50 -88.50 TS 50 11 300
1886 NA NA 15:00:00 TS 20.79 -89.01 0 0 _____________P -1 20.79 -89.01 TS 52 11 303
1886 NA NA 18:00:00 TS 21.10 -89.50 0 0 _____________O -1 21.10 -89.50 TS 55 11 304
1886 NA GM 21:00:00 TS 21.40 -89.96 24 24 _____________P -1 21.40 -89.96 TS 57 10 306
1886 NA GM 1886-06-12 00:00:00 TS 21.70 -90.40 67 67 _____________O -1 21.70 -90.40 TS 60 10 306
1886 NA GM 03:00:00 TS 22.01 -90.84 113 113 _____________P -1 22.01 -90.84 TS 60 10 306
1886 NA GM 06:00:00 TS 22.30 -91.30 169 169 _____________O -1 22.30 -91.30 TS 60 11 302
1886 NA GM 09:00:00 TS 22.56 -91.82 228 228 _____________P -1 22.56 -91.82 TS 62 11 298
1886 NA GM 12:00:00 TS 22.80 -92.30 280 280 _____________O -1 22.80 -92.30 HU 65 8 301
1886 NA GM 15:00:00 TS 22.98 -92.57 318 318 _____________P -1 22.98 -92.57 HU 66 5 311
1886 NA GM 18:00:00 TS 23.14 -92.73 333 333 _____________P -1 23.14 -92.73 HU 67 4 325
1886 NA GM 21:00:00 TS 23.33 -92.84 355 355 _____________P -1 23.33 -92.84 HU 68 5 331
1886 NA GM 1886-06-13 00:00:00 TS 23.60 -93.00 393 393 _____________O -1 23.60 -93.00 HU 70 8 328
1886 NA GM 03:00:00 TS 23.98 -93.29 432 349 _____________P -1 23.98 -93.29 HU 70 13 289
1886 NA GM 06:00:00 TS 24.00 -94.30 35 hurdat_atl 340 275 O____________O hurdat_atl AL011886 23.20 -95.70 TS 35 0 24.40 -93.60 HU 70 15 286
1886 NA GM 09:00:00 TS 24.38 -94.85 266 215 P____________P AL011886 23.96 -95.80 TS 37 0 24.80 -93.90 HU 70 12 317
1886 NA GM 12:00:00 TS 24.90 -95.22 40 hurdat_atl 215 171 O____________O hurdat_atl AL011886 24.70 -95.90 TS 40 0 25.20 -94.20 HU 70 12 332
1886 NA GM 15:00:00 TS 25.47 -95.49 169 149 P____________P AL011886 25.39 -95.98 TS 42 0 25.61 -94.50 HU 70 12 343
1886 NA GM 18:00:00 TS 26.00 -95.60 45 hurdat_atl 149 143 O____________O hurdat_atl AL011886 26.00 -96.00 TS 45 0 26.00 -94.80 HU 70 10 350
1886 NA GM 21:00:00 TS 26.43 -95.67 146 146 P____________P AL011886 26.47 -95.94 TS 50 0 26.35 -95.13 HU 70 8 356
1886 NA GM 1886-06-14 00:00:00 TS 26.83 -95.67 55 hurdat_atl 165 145 O____________O hurdat_atl AL011886 26.90 -95.80 TS 55 0 26.70 -95.40 HU 70 9 6
1886 NA GM 03:00:00 TS 27.29 -95.58 145 116 P____________P AL011886 27.39 -95.58 TS 60 0 27.10 -95.57 HU 70 10 14
1886 NA GM 06:00:00 TS 27.77 -95.40 65 hurdat_atl 106 80 O____________O hurdat_atl AL011886 27.90 -95.30 HU 65 1 27.50 -95.60 HU 70 10 21
1886 NA GM 09:00:00 TS 28.21 -95.18 80 53 P____________P AL011886 28.40 -95.02 HU 70 1 27.85 -95.50 HU 72 10 28
1886 NA GM 12:00:00 TS 28.67 -94.87 75 hurdat_atl 44 44 O____________O hurdat_atl AL011886 28.90 -94.70 HU 75 1 28.20 -95.20 HU 75 12 36
1886 NA GM 15:00:00 TS 29.14 -94.41 48 34 P____________P AL011886 29.43 -94.32 HU 82 1 28.56 -94.61 HU 80 12 40
1886 NA GM 16:00:00 TS 29.30 -94.26 85 hurdat_atl 34 11 O____________P hurdat_atl AL011886 29.60 -94.20 L HU 85 2 28.70 -94.39 HU 81 12 38
1886 NA GM 18:00:00 TS 29.60 -94.00 85 hurdat_atl 11 0 O____________O hurdat_atl AL011886 29.90 -94.00 HU 85 2 29.00 -94.00 HU 85 11 37
1886 NA NA 21:00:00 TS 30.05 -93.61 0 0 P____________P AL011886 30.29 -93.56 HU 72 1 29.57 -93.70 HU 72 11 40
1886 NA NA 1886-06-15 00:00:00 TS 30.47 -93.17 60 hurdat_atl 0 0 O____________O hurdat_atl AL011886 30.60 -93.00 TS 60 0 30.20 -93.50 TS 60 11 45
1886 NA NA 03:00:00 TS 30.83 -92.70 0 0 P____________P AL011886 30.84 -92.43 TS 52 0 30.81 -93.25 TS 52 11 54
1886 NA NA 06:00:00 TS 31.11 -92.13 45 hurdat_atl 0 0 O____________O hurdat_atl AL011886 31.00 -91.80 TS 45 0 31.40 -93.00 TS 45 12 67
1886 NA NA 09:00:00 TS 31.30 -91.44 0 0 P____________P AL011886 31.13 -91.11 TS 40 0 31.96 -92.75 TS 40 13 77
1886 NA NA 12:00:00 TS 31.39 -90.70 35 hurdat_atl 0 0 O____________O hurdat_atl AL011886 31.20 -90.40 TS 35 0 32.50 -92.50 TS 35 15 93
1886 NA NA 15:00:00 TS 31.22 -89.69 0 0 P_____________ AL011886 31.22 -89.69 TS 32 -1 TS 15 97
1886 NA NA 18:00:00 TS 31.20 -89.00 30 hurdat_atl 0 O_____________ hurdat_atl AL011886 31.20 -89.00 TD 30 -1 12 92